sensor_id;sensor_type;location;lat;lon;timestamp;pressure;altitude;pressure_sealevel;temperature;humidity
67109;BME280;54027;50.786;7.058;2023-02-28T00:00:17;102461.13;;;-0.73;79.06
67109;BME280;54027;50.786;7.058;2023-02-28T00:02:44;102449.91;;;-0.77;78.60
67109;BME280;54027;50.786;7.058;2023-02-28T00:05:11;102459.19;;;-0.77;78.75
67109;BME280;54027;50.786;7.058;2023-02-28T00:07:37;102448.81;;;-0.80;78.91
67109;BME280;54027;50.786;7.058;2023-02-28T00:10:04;102443.34;;;-0.86;79.27
67109;BME280;54027;50.786;7.058;2023-02-28T00:12:31;102458.09;;;-0.94;78.98
67109;BME280;54027;50.786;7.058;2023-02-28T00:14:57;102454.28;;;-1.01;79.16
67109;BME280;54027;50.786;7.058;2023-02-28T00:17:22;102456.44;;;-1.07;78.78
67109;BME280;54027;50.786;7.058;2023-02-28T00:19:48;102459.66;;;-1.09;79.85
67109;BME280;54027;50.786;7.058;2023-02-28T00:22:15;102456.91;;;-1.12;79.83
67109;BME280;54027;50.786;7.058;2023-02-28T00:24:40;102463.44;;;-1.16;79.91
67109;BME280;54027;50.786;7.058;2023-02-28T00:27:06;102457.28;;;-1.19;80.37
67109;BME280;54027;50.786;7.058;2023-02-28T00:29:31;102458.75;;;-1.23;80.23
67109;BME280;54027;50.786;7.058;2023-02-28T00:31:56;102458.44;;;-1.27;80.15
67109;BME280;54027;50.786;7.058;2023-02-28T00:34:22;102459.69;;;-1.34;80.08
67109;BME280;54027;50.786;7.058;2023-02-28T00:36:47;102467.69;;;-1.41;79.81
67109;BME280;54027;50.786;7.058;2023-02-28T00:39:16;102464.16;;;-1.43;80.61
67109;BME280;54027;50.786;7.058;2023-02-28T00:41:41;102469.00;;;-1.46;80.37
67109;BME280;54027;50.786;7.058;2023-02-28T00:44:06;102466.38;;;-1.47;80.71
67109;BME280;54027;50.786;7.058;2023-02-28T00:46:32;102462.97;;;-1.48;80.51
67109;BME280;54027;50.786;7.058;2023-02-28T00:48:57;102466.28;;;-1.49;81.02
67109;BME280;54027;50.786;7.058;2023-02-28T00:51:23;102468.59;;;-1.52;80.74
67109;BME280;54027;50.786;7.058;2023-02-28T00:53:48;102465.09;;;-1.54;80.70
67109;BME280;54027;50.786;7.058;2023-02-28T00:56:13;102458.94;;;-1.58;81.48
67109;BME280;54027;50.786;7.058;2023-02-28T00:58:39;102469.00;;;-1.59;81.08
67109;BME280;54027;50.786;7.058;2023-02-28T01:01:05;102469.88;;;-1.59;81.36
67109;BME280;54027;50.786;7.058;2023-02-28T01:03:30;102469.97;;;-1.57;81.56
67109;BME280;54027;50.786;7.058;2023-02-28T01:05:56;102468.22;;;-1.58;81.31
67109;BME280;54027;50.786;7.058;2023-02-28T01:08:21;102472.41;;;-1.59;81.48
67109;BME280;54027;50.786;7.058;2023-02-28T01:10:47;102468.88;;;-1.61;81.32
67109;BME280;54027;50.786;7.058;2023-02-28T01:13:13;102472.06;;;-1.63;81.66
67109;BME280;54027;50.786;7.058;2023-02-28T01:15:43;102476.19;;;-1.65;82.06
67109;BME280;54027;50.786;7.058;2023-02-28T01:18:09;102473.53;;;-1.67;81.62
67109;BME280;54027;50.786;7.058;2023-02-28T01:20:36;102476.94;;;-1.66;81.70
67109;BME280;54027;50.786;7.058;2023-02-28T01:23:02;102475.09;;;-1.69;82.05
67109;BME280;54027;50.786;7.058;2023-02-28T01:25:27;102476.72;;;-1.69;82.15
67109;BME280;54027;50.786;7.058;2023-02-28T01:27:53;102472.56;;;-1.69;82.15
67109;BME280;54027;50.786;7.058;2023-02-28T01:30:19;102471.56;;;-1.71;81.86
67109;BME280;54027;50.786;7.058;2023-02-28T01:32:44;102475.75;;;-1.71;81.82
67109;BME280;54027;50.786;7.058;2023-02-28T01:35:09;102470.69;;;-1.71;82.08
67109;BME280;54027;50.786;7.058;2023-02-28T01:37:35;102475.75;;;-1.71;81.96
67109;BME280;54027;50.786;7.058;2023-02-28T01:40:01;102462.88;;;-1.74;81.53
67109;BME280;54027;50.786;7.058;2023-02-28T01:42:26;102463.84;;;-1.72;81.91
67109;BME280;54027;50.786;7.058;2023-02-28T01:47:38;102465.41;;;-1.74;82.41
67109;BME280;54027;50.786;7.058;2023-02-28T01:50:13;102463.56;;;-1.77;82.26
67109;BME280;54027;50.786;7.058;2023-02-28T01:52:40;102463.44;;;-1.78;82.12
67109;BME280;54027;50.786;7.058;2023-02-28T01:55:06;102460.59;;;-1.83;82.09
67109;BME280;54027;50.786;7.058;2023-02-28T01:57:36;102459.63;;;-1.85;82.26
67109;BME280;54027;50.786;7.058;2023-02-28T02:00:24;102453.34;;;-1.90;82.24
67109;BME280;54027;50.786;7.058;2023-02-28T02:02:56;102458.19;;;-1.93;82.48
67109;BME280;54027;50.786;7.058;2023-02-28T02:05:25;102463.19;;;-1.94;82.14
67109;BME280;54027;50.786;7.058;2023-02-28T02:08:01;102452.25;;;-1.93;82.44
67109;BME280;54027;50.786;7.058;2023-02-28T02:10:35;102447.97;;;-1.94;82.34
67109;BME280;54027;50.786;7.058;2023-02-28T02:15:44;102451.50;;;-1.92;82.61
67109;BME280;54027;50.786;7.058;2023-02-28T02:18:51;102448.19;;;-1.91;82.55
67109;BME280;54027;50.786;7.058;2023-02-28T02:21:37;102439.03;;;-1.89;82.97
67109;BME280;54027;50.786;7.058;2023-02-28T02:38:41;102442.28;;;-2.03;83.11
67109;BME280;54027;50.786;7.058;2023-02-28T02:41:20;102442.84;;;-2.08;83.22
67109;BME280;54027;50.786;7.058;2023-02-28T02:43:55;102443.50;;;-2.10;83.39
67109;BME280;54027;50.786;7.058;2023-02-28T02:46:30;102441.09;;;-2.20;83.72
67109;BME280;54027;50.786;7.058;2023-02-28T02:49:00;102439.81;;;-2.27;83.62
67109;BME280;54027;50.786;7.058;2023-02-28T02:51:27;102444.47;;;-2.33;83.86
67109;BME280;54027;50.786;7.058;2023-02-28T02:53:59;102447.75;;;-2.34;84.18
67109;BME280;54027;50.786;7.058;2023-02-28T02:56:28;102439.19;;;-2.36;84.01
67109;BME280;54027;50.786;7.058;2023-02-28T02:59:08;102442.81;;;-2.32;84.23
67109;BME280;54027;50.786;7.058;2023-02-28T03:01:37;102445.44;;;-2.31;83.94
67109;BME280;54027;50.786;7.058;2023-02-28T03:04:10;102439.59;;;-2.30;84.49
67109;BME280;54027;50.786;7.058;2023-02-28T03:06:36;102441.13;;;-2.32;84.05
67109;BME280;54027;50.786;7.058;2023-02-28T03:09:01;102440.16;;;-2.34;84.30
67109;BME280;54027;50.786;7.058;2023-02-28T03:11:27;102442.38;;;-2.38;84.37
67109;BME280;54027;50.786;7.058;2023-02-28T03:21:41;102432.47;;;-2.58;84.53
67109;BME280;54027;50.786;7.058;2023-02-28T03:24:19;102434.03;;;-2.60;84.87
67109;BME280;54027;50.786;7.058;2023-02-28T03:26:54;102433.06;;;-2.63;84.69
67109;BME280;54027;50.786;7.058;2023-02-28T03:29:35;102433.72;;;-2.65;84.79
67109;BME280;54027;50.786;7.058;2023-02-28T03:32:04;102433.81;;;-2.64;84.95
67109;BME280;54027;50.786;7.058;2023-02-28T03:34:39;102432.94;;;-2.64;84.79
67109;BME280;54027;50.786;7.058;2023-02-28T03:37:11;102436.34;;;-2.64;84.84
67109;BME280;54027;50.786;7.058;2023-02-28T03:39:42;102432.19;;;-2.63;85.05
67109;BME280;54027;50.786;7.058;2023-02-28T03:42:15;102429.66;;;-2.63;84.86
67109;BME280;54027;50.786;7.058;2023-02-28T03:45:02;102428.75;;;-2.64;85.08
67109;BME280;54027;50.786;7.058;2023-02-28T03:50:15;102433.16;;;-2.61;85.05
67109;BME280;54027;50.786;7.058;2023-02-28T03:55:48;102432.63;;;-2.69;84.58
67109;BME280;54027;50.786;7.058;2023-02-28T03:58:32;102433.94;;;-2.74;84.88
67109;BME280;54027;50.786;7.058;2023-02-28T04:01:12;102431.84;;;-2.79;84.83
67109;BME280;54027;50.786;7.058;2023-02-28T04:03:40;102426.69;;;-2.81;85.08
67109;BME280;54027;50.786;7.058;2023-02-28T04:06:08;102431.75;;;-2.81;84.64
67109;BME280;54027;50.786;7.058;2023-02-28T04:08:38;102429.31;;;-2.79;84.69
67109;BME280;54027;50.786;7.058;2023-02-28T04:11:08;102434.72;;;-2.75;84.29
67109;BME280;54027;50.786;7.058;2023-02-28T04:13:40;102435.38;;;-2.77;84.20
67109;BME280;54027;50.786;7.058;2023-02-28T04:16:08;102434.38;;;-2.79;84.17
67109;BME280;54027;50.786;7.058;2023-02-28T04:18:40;102438.47;;;-2.81;84.06
67109;BME280;54027;50.786;7.058;2023-02-28T04:21:06;102425.59;;;-2.84;84.23
67109;BME280;54027;50.786;7.058;2023-02-28T04:23:32;102438.25;;;-2.84;84.13
67109;BME280;54027;50.786;7.058;2023-02-28T04:25:58;102430.66;;;-2.84;84.56
67109;BME280;54027;50.786;7.058;2023-02-28T04:28:23;102440.09;;;-2.82;84.32
67109;BME280;54027;50.786;7.058;2023-02-28T04:30:56;102433.41;;;-2.81;84.17
67109;BME280;54027;50.786;7.058;2023-02-28T04:33:22;102441.75;;;-2.82;84.26
67109;BME280;54027;50.786;7.058;2023-02-28T04:35:48;102444.06;;;-2.85;84.26
67109;BME280;54027;50.786;7.058;2023-02-28T04:38:13;102439.88;;;-2.85;84.27
67109;BME280;54027;50.786;7.058;2023-02-28T04:40:38;102441.44;;;-2.87;84.48
67109;BME280;54027;50.786;7.058;2023-02-28T04:43:04;102438.69;;;-2.90;84.54
67109;BME280;54027;50.786;7.058;2023-02-28T04:45:29;102441.97;;;-2.91;84.64
67109;BME280;54027;50.786;7.058;2023-02-28T04:47:57;102444.63;;;-2.89;84.42
67109;BME280;54027;50.786;7.058;2023-02-28T04:50:23;102452.97;;;-2.90;84.20
67109;BME280;54027;50.786;7.058;2023-02-28T04:52:48;102449.47;;;-2.92;84.23
67109;BME280;54027;50.786;7.058;2023-02-28T04:55:14;102448.34;;;-2.96;84.29
67109;BME280;54027;50.786;7.058;2023-02-28T04:57:39;102445.81;;;-2.96;84.39
67109;BME280;54027;50.786;7.058;2023-02-28T05:00:08;102450.97;;;-2.94;84.46
67109;BME280;54027;50.786;7.058;2023-02-28T05:02:37;102452.53;;;-2.96;84.22
67109;BME280;54027;50.786;7.058;2023-02-28T05:05:04;102454.31;;;-2.95;84.46
67109;BME280;54027;50.786;7.058;2023-02-28T05:07:29;102454.19;;;-2.97;84.58
67109;BME280;54027;50.786;7.058;2023-02-28T05:09:55;102460.03;;;-2.98;84.36
67109;BME280;54027;50.786;7.058;2023-02-28T05:12:20;102464.84;;;-3.01;84.62
67109;BME280;54027;50.786;7.058;2023-02-28T05:14:45;102457.16;;;-3.02;84.34
67109;BME280;54027;50.786;7.058;2023-02-28T05:17:11;102460.44;;;-3.03;84.72
67109;BME280;54027;50.786;7.058;2023-02-28T05:19:36;102458.56;;;-3.06;84.65
67109;BME280;54027;50.786;7.058;2023-02-28T05:22:02;102459.44;;;-3.05;84.54
67109;BME280;54027;50.786;7.058;2023-02-28T05:24:27;102460.22;;;-3.06;84.59
67109;BME280;54027;50.786;7.058;2023-02-28T05:26:54;102461.97;;;-3.05;84.55
67109;BME280;54027;50.786;7.058;2023-02-28T05:29:20;102461.09;;;-3.06;84.57
67109;BME280;54027;50.786;7.058;2023-02-28T05:31:46;102462.97;;;-3.03;83.97
67109;BME280;54027;50.786;7.058;2023-02-28T05:34:11;102459.13;;;-2.98;83.61
67109;BME280;54027;50.786;7.058;2023-02-28T05:36:37;102456.69;;;-2.97;83.01
67109;BME280;54027;50.786;7.058;2023-02-28T05:39:05;102459.34;;;-2.95;83.06
67109;BME280;54027;50.786;7.058;2023-02-28T05:41:31;102453.63;;;-2.93;82.76
67109;BME280;54027;50.786;7.058;2023-02-28T05:43:57;102460.47;;;-2.92;82.62
67109;BME280;54027;50.786;7.058;2023-02-28T05:46:23;102456.47;;;-2.88;82.22
67109;BME280;54027;50.786;7.058;2023-02-28T05:48:48;102458.25;;;-2.87;81.94
67109;BME280;54027;50.786;7.058;2023-02-28T05:51:15;102453.50;;;-2.83;82.20
67109;BME280;54027;50.786;7.058;2023-02-28T05:53:40;102453.50;;;-2.83;81.96
67109;BME280;54027;50.786;7.058;2023-02-28T05:56:06;102457.59;;;-2.85;81.88
67109;BME280;54027;50.786;7.058;2023-02-28T05:58:31;102455.84;;;-2.86;81.81
67109;BME280;54027;50.786;7.058;2023-02-28T06:00:58;102459.13;;;-2.87;81.94
67109;BME280;54027;50.786;7.058;2023-02-28T06:03:23;102455.63;;;-2.89;81.66
67109;BME280;54027;50.786;7.058;2023-02-28T06:05:49;102455.50;;;-2.90;81.83
67109;BME280;54027;50.786;7.058;2023-02-28T06:08:15;102458.69;;;-2.93;81.55
67109;BME280;54027;50.786;7.058;2023-02-28T06:10:41;102453.50;;;-2.94;81.86
67109;BME280;54027;50.786;7.058;2023-02-28T06:13:06;102451.78;;;-2.95;81.75
67109;BME280;54027;50.786;7.058;2023-02-28T06:15:32;102463.53;;;-2.96;81.54
67109;BME280;54027;50.786;7.058;2023-02-28T06:17:58;102465.09;;;-2.98;81.82
67109;BME280;54027;50.786;7.058;2023-02-28T06:20:24;102467.38;;;-3.01;81.79
67109;BME280;54027;50.786;7.058;2023-02-28T06:22:51;102472.22;;;-3.04;82.32
67109;BME280;54027;50.786;7.058;2023-02-28T06:25:17;102477.16;;;-3.05;82.17
67109;BME280;54027;50.786;7.058;2023-02-28T06:27:43;102475.38;;;-3.06;82.03
67109;BME280;54027;50.786;7.058;2023-02-28T06:30:10;102480.44;;;-3.06;82.06
67109;BME280;54027;50.786;7.058;2023-02-28T06:32:35;102479.69;;;-3.05;82.20
67109;BME280;54027;50.786;7.058;2023-02-28T06:35:01;102480.66;;;-3.03;82.19
67109;BME280;54027;50.786;7.058;2023-02-28T06:37:27;102485.09;;;-3.01;82.04
67109;BME280;54027;50.786;7.058;2023-02-28T06:39:54;102481.00;;;-2.99;82.09
67109;BME280;54027;50.786;7.058;2023-02-28T06:42:22;102487.06;;;-2.97;81.79
67109;BME280;54027;50.786;7.058;2023-02-28T06:44:50;102485.53;;;-2.95;82.01
67109;BME280;54027;50.786;7.058;2023-02-28T06:47:15;102483.34;;;-2.90;82.05
67109;BME280;54027;50.786;7.058;2023-02-28T06:49:41;102486.22;;;-2.86;81.54
67109;BME280;54027;50.786;7.058;2023-02-28T06:52:06;102495.91;;;-2.80;81.33
67109;BME280;54027;50.786;7.058;2023-02-28T06:54:32;102494.44;;;-2.77;81.02
67109;BME280;54027;50.786;7.058;2023-02-28T06:56:58;102499.72;;;-2.74;80.71
67109;BME280;54027;50.786;7.058;2023-02-28T06:59:23;102498.28;;;-2.70;80.93
67109;BME280;54027;50.786;7.058;2023-02-28T07:01:49;102492.56;;;-2.68;80.69
67109;BME280;54027;50.786;7.058;2023-02-28T07:04:14;102503.03;;;-2.63;80.44
67109;BME280;54027;50.786;7.058;2023-02-28T07:06:39;102507.66;;;-2.57;80.43
67109;BME280;54027;50.786;7.058;2023-02-28T07:09:05;102509.00;;;-2.51;80.49
67109;BME280;54027;50.786;7.058;2023-02-28T07:11:31;102500.28;;;-2.43;80.26
67109;BME280;54027;50.786;7.058;2023-02-28T07:13:56;102503.91;;;-2.28;79.97
67109;BME280;54027;50.786;7.058;2023-02-28T07:16:24;102495.06;;;-2.10;78.94
67109;BME280;54027;50.786;7.058;2023-02-28T07:18:52;102483.09;;;-1.87;77.57
67109;BME280;54027;50.786;7.058;2023-02-28T07:21:18;102469.81;;;-1.72;77.29
67109;BME280;54027;50.786;7.058;2023-02-28T07:23:43;102465.00;;;-1.56;76.56
67109;BME280;54027;50.786;7.058;2023-02-28T07:26:14;102463.72;;;-1.49;76.41
67109;BME280;54027;50.786;7.058;2023-02-28T07:28:45;102463.91;;;-1.34;75.82
67109;BME280;54027;50.786;7.058;2023-02-28T07:31:12;102455.81;;;-1.29;75.69
67109;BME280;54027;50.786;7.058;2023-02-28T07:33:39;102451.75;;;-1.14;75.54
67109;BME280;54027;50.786;7.058;2023-02-28T07:36:10;102442.47;;;-1.00;74.40
67109;BME280;54027;50.786;7.058;2023-02-28T07:38:40;102435.66;;;-0.88;73.64
67109;BME280;54027;50.786;7.058;2023-02-28T07:41:05;102421.00;;;-0.79;73.68
67109;BME280;54027;50.786;7.058;2023-02-28T07:43:32;102432.31;;;-0.74;73.34
67109;BME280;54027;50.786;7.058;2023-02-28T07:46:05;102453.59;;;-0.72;74.04
67109;BME280;54027;50.786;7.058;2023-02-28T07:48:31;102441.09;;;-0.69;73.91
67109;BME280;54027;50.786;7.058;2023-02-28T07:50:57;102442.69;;;-0.58;73.60
67109;BME280;54027;50.786;7.058;2023-02-28T07:53:23;102431.41;;;-0.48;73.33
67109;BME280;54027;50.786;7.058;2023-02-28T07:55:48;102432.09;;;-0.38;73.22
67109;BME280;54027;50.786;7.058;2023-02-28T07:58:14;102446.94;;;-0.30;73.40
67109;BME280;54027;50.786;7.058;2023-02-28T08:00:39;102416.03;;;-0.23;71.98
67109;BME280;54027;50.786;7.058;2023-02-28T08:03:05;102402.41;;;-0.11;71.39
67109;BME280;54027;50.786;7.058;2023-02-28T08:05:30;102397.88;;;-0.02;70.62
67109;BME280;54027;50.786;7.058;2023-02-28T08:07:56;102360.66;;;0.13;68.89
67109;BME280;54027;50.786;7.058;2023-02-28T08:10:22;102342.88;;;0.28;67.43
67109;BME280;54027;50.786;7.058;2023-02-28T08:12:47;102341.75;;;0.38;67.50
67109;BME280;54027;50.786;7.058;2023-02-28T08:15:13;102330.69;;;0.52;66.79
67109;BME280;54027;50.786;7.058;2023-02-28T08:17:38;102321.38;;;0.67;65.38
67109;BME280;54027;50.786;7.058;2023-02-28T08:20:04;102310.13;;;0.78;64.36
67109;BME280;54027;50.786;7.058;2023-02-28T08:22:30;102273.25;;;0.86;62.75
67109;BME280;54027;50.786;7.058;2023-02-28T08:24:55;102279.72;;;0.96;62.88
67109;BME280;54027;50.786;7.058;2023-02-28T08:27:20;102277.06;;;1.09;61.94
67109;BME280;54027;50.786;7.058;2023-02-28T08:29:46;102268.44;;;1.07;61.05
67109;BME280;54027;50.786;7.058;2023-02-28T08:32:11;102272.50;;;1.03;59.89
67109;BME280;54027;50.786;7.058;2023-02-28T08:34:39;102273.06;;;1.14;60.25
67109;BME280;54027;50.786;7.058;2023-02-28T08:37:04;102279.03;;;1.30;60.01
67109;BME280;54027;50.786;7.058;2023-02-28T08:39:30;102290.44;;;1.37;59.83
67109;BME280;54027;50.786;7.058;2023-02-28T08:41:55;102239.25;;;1.49;57.45
67109;BME280;54027;50.786;7.058;2023-02-28T08:44:21;102214.50;;;1.62;55.55
67109;BME280;54027;50.786;7.058;2023-02-28T08:46:46;102213.25;;;1.72;55.28
67109;BME280;54027;50.786;7.058;2023-02-28T08:49:12;102205.75;;;1.75;54.31
67109;BME280;54027;50.786;7.058;2023-02-28T08:51:38;102236.03;;;1.85;55.44
67109;BME280;54027;50.786;7.058;2023-02-28T08:54:04;102218.78;;;1.97;54.59
67109;BME280;54027;50.786;7.058;2023-02-28T08:56:29;102205.69;;;2.07;53.38
67109;BME280;54027;50.786;7.058;2023-02-28T08:58:56;102231.63;;;2.16;54.29
67109;BME280;54027;50.786;7.058;2023-02-28T09:01:27;102186.69;;;2.18;51.23
67109;BME280;54027;50.786;7.058;2023-02-28T09:03:54;102188.56;;;2.22;51.13
67109;BME280;54027;50.786;7.058;2023-02-28T09:06:25;102205.19;;;2.32;52.65
67109;BME280;54027;50.786;7.058;2023-02-28T09:08:51;102214.94;;;2.40;51.87
67109;BME280;54027;50.786;7.058;2023-02-28T09:11:17;102187.91;;;2.44;50.01
67109;BME280;54027;50.786;7.058;2023-02-28T09:13:43;102200.91;;;2.49;50.48
67109;BME280;54027;50.786;7.058;2023-02-28T09:16:11;102193.53;;;2.55;49.84
67109;BME280;54027;50.786;7.058;2023-02-28T09:18:38;102202.41;;;2.63;49.40
67109;BME280;54027;50.786;7.058;2023-02-28T09:21:09;102209.31;;;2.65;50.14
67109;BME280;54027;50.786;7.058;2023-02-28T09:23:35;102184.59;;;2.64;48.99
67109;BME280;54027;50.786;7.058;2023-02-28T09:26:04;102200.00;;;2.66;48.42
67109;BME280;54027;50.786;7.058;2023-02-28T09:28:29;102192.34;;;2.66;48.07
67109;BME280;54027;50.786;7.058;2023-02-28T09:30:55;102160.75;;;2.64;46.32
67109;BME280;54027;50.786;7.058;2023-02-28T09:33:22;102191.88;;;2.74;47.81
67109;BME280;54027;50.786;7.058;2023-02-28T09:35:49;102194.84;;;2.83;47.70
67109;BME280;54027;50.786;7.058;2023-02-28T09:38:15;102203.53;;;2.87;47.95
67109;BME280;54027;50.786;7.058;2023-02-28T09:41:10;102180.97;;;2.96;47.12
67109;BME280;54027;50.786;7.058;2023-02-28T09:43:39;102206.84;;;3.04;48.46
67109;BME280;54027;50.786;7.058;2023-02-28T09:46:42;102197.69;;;3.09;47.91
67109;BME280;54027;50.786;7.058;2023-02-28T09:49:16;102215.97;;;3.18;49.06
67109;BME280;54027;50.786;7.058;2023-02-28T09:54:18;102213.19;;;3.31;48.73
67109;BME280;54027;50.786;7.058;2023-02-28T09:56:50;102185.47;;;3.40;46.60
67109;BME280;54027;50.786;7.058;2023-02-28T10:04:59;102171.28;;;3.46;45.77
67109;BME280;54027;50.786;7.058;2023-02-28T10:07:44;102150.88;;;3.48;45.54
67109;BME280;54027;50.786;7.058;2023-02-28T10:10:27;102158.25;;;3.61;45.19
67109;BME280;54027;50.786;7.058;2023-02-28T10:12:56;102145.09;;;3.52;43.35
67109;BME280;54027;50.786;7.058;2023-02-28T10:15:25;102153.69;;;3.54;44.84
67109;BME280;54027;50.786;7.058;2023-02-28T10:17:57;102191.75;;;3.67;46.72
67109;BME280;54027;50.786;7.058;2023-02-28T10:20:25;102189.00;;;3.83;45.87
67109;BME280;54027;50.786;7.058;2023-02-28T10:25:35;102130.44;;;3.89;42.72
67109;BME280;54027;50.786;7.058;2023-02-28T10:28:13;102149.09;;;3.87;43.76
67109;BME280;54027;50.786;7.058;2023-02-28T10:30:42;102116.25;;;3.97;41.42
67109;BME280;54027;50.786;7.058;2023-02-28T10:33:18;102146.00;;;4.16;42.64
67109;BME280;54027;50.786;7.058;2023-02-28T10:35:44;102148.00;;;4.23;43.10
67109;BME280;54027;50.786;7.058;2023-02-28T10:38:16;102145.84;;;4.34;43.57
67109;BME280;54027;50.786;7.058;2023-02-28T10:40:43;102122.19;;;4.39;42.29
67109;BME280;54027;50.786;7.058;2023-02-28T10:48:33;102114.22;;;4.32;40.26
67109;BME280;54027;50.786;7.058;2023-02-28T10:51:00;102123.06;;;4.40;41.36
67109;BME280;54027;50.786;7.058;2023-02-28T10:58:56;102108.63;;;4.42;40.76
67109;BME280;54027;50.786;7.058;2023-02-28T11:01:41;102126.97;;;4.52;41.25
67109;BME280;54027;50.786;7.058;2023-02-28T11:06:59;102123.22;;;4.66;40.53
67109;BME280;54027;50.786;7.058;2023-02-28T11:09:32;102108.50;;;4.61;40.74
67109;BME280;54027;50.786;7.058;2023-02-28T11:12:00;102133.66;;;4.71;41.51
67109;BME280;54027;50.786;7.058;2023-02-28T11:14:31;102118.09;;;4.66;40.83
67109;BME280;54027;50.786;7.058;2023-02-28T11:17:11;102131.00;;;4.70;41.81
67109;BME280;54027;50.786;7.058;2023-02-28T11:19:44;102146.19;;;4.87;42.70
67109;BME280;54027;50.786;7.058;2023-02-28T11:22:11;102131.56;;;5.07;41.71
67109;BME280;54027;50.786;7.058;2023-02-28T11:24:44;102101.59;;;5.06;39.86
67109;BME280;54027;50.786;7.058;2023-02-28T11:29:56;102125.75;;;5.12;40.49
67109;BME280;54027;50.786;7.058;2023-02-28T11:32:23;102112.78;;;5.08;40.84
67109;BME280;54027;50.786;7.058;2023-02-28T11:37:37;102130.44;;;5.24;41.87
67109;BME280;54027;50.786;7.058;2023-02-28T11:40:15;102120.41;;;5.30;41.40
67109;BME280;54027;50.786;7.058;2023-02-28T11:43:05;102120.34;;;5.29;40.79
67109;BME280;54027;50.786;7.058;2023-02-28T11:48:22;102108.06;;;5.20;39.53
67109;BME280;54027;50.786;7.058;2023-02-28T11:54:03;102111.75;;;5.28;40.44
67109;BME280;54027;50.786;7.058;2023-02-28T12:04:42;102120.94;;;5.45;41.03
67109;BME280;54027;50.786;7.058;2023-02-28T12:10:05;102138.44;;;5.58;41.98
67109;BME280;54027;50.786;7.058;2023-02-28T12:21:20;102109.47;;;5.36;39.80
67109;BME280;54027;50.786;7.058;2023-02-28T12:24:05;102106.31;;;5.43;39.52
67109;BME280;54027;50.786;7.058;2023-02-28T12:26:38;102100.66;;;5.53;40.61
67109;BME280;54027;50.786;7.058;2023-02-28T12:34:30;102118.84;;;5.86;40.57
67109;BME280;54027;50.786;7.058;2023-02-28T12:36:58;102109.59;;;5.91;40.14
67109;BME280;54027;50.786;7.058;2023-02-28T12:39:30;102093.97;;;5.83;39.09
67109;BME280;54027;50.786;7.058;2023-02-28T12:42:19;102095.66;;;5.83;40.01
67109;BME280;54027;50.786;7.058;2023-02-28T12:44:53;102093.06;;;5.81;39.54
67109;BME280;54027;50.786;7.058;2023-02-28T12:47:19;102090.31;;;5.76;38.76
67109;BME280;54027;50.786;7.058;2023-02-28T12:49:56;102087.66;;;5.73;39.30
67109;BME280;54027;50.786;7.058;2023-02-28T12:52:39;102091.47;;;5.59;39.35
67109;BME280;54027;50.786;7.058;2023-02-28T13:06:22;102102.28;;;6.03;40.04
67109;BME280;54027;50.786;7.058;2023-02-28T13:09:08;102064.66;;;5.76;39.06
67109;BME280;54027;50.786;7.058;2023-02-28T13:11:49;102077.59;;;5.79;39.58
67109;BME280;54027;50.786;7.058;2023-02-28T13:19:20;102062.81;;;5.72;39.74
67109;BME280;54027;50.786;7.058;2023-02-28T13:21:48;102044.13;;;5.75;38.99
67109;BME280;54027;50.786;7.058;2023-02-28T13:34:38;102089.06;;;5.91;41.06
67109;BME280;54027;50.786;7.058;2023-02-28T13:39:54;102081.66;;;6.00;40.23
67109;BME280;54027;50.786;7.058;2023-02-28T13:47:52;102086.56;;;5.92;41.13
67109;BME280;54027;50.786;7.058;2023-02-28T13:56:03;102057.97;;;6.08;39.93
67109;BME280;54027;50.786;7.058;2023-02-28T14:06:26;102073.03;;;6.26;40.91
67109;BME280;54027;50.786;7.058;2023-02-28T14:08:59;102047.97;;;6.17;40.41
67109;BME280;54027;50.786;7.058;2023-02-28T14:11:34;102044.38;;;6.11;39.75
67109;BME280;54027;50.786;7.058;2023-02-28T14:14:01;102066.03;;;6.20;40.60
67109;BME280;54027;50.786;7.058;2023-02-28T14:16:47;102057.69;;;6.27;40.58
67109;BME280;54027;50.786;7.058;2023-02-28T14:19:27;102050.72;;;6.23;39.72
67109;BME280;54027;50.786;7.058;2023-02-28T14:24:48;102057.63;;;6.26;40.84
67109;BME280;54027;50.786;7.058;2023-02-28T14:30:36;102047.34;;;6.24;40.86
67109;BME280;54027;50.786;7.058;2023-02-28T14:36:06;102055.94;;;6.26;41.17
67109;BME280;54027;50.786;7.058;2023-02-28T14:38:46;102040.50;;;6.25;40.45
67109;BME280;54027;50.786;7.058;2023-02-28T14:41:29;102034.22;;;6.15;39.30
67109;BME280;54027;50.786;7.058;2023-02-28T14:43:59;102047.75;;;6.10;40.81
67109;BME280;54027;50.786;7.058;2023-02-28T14:46:37;102037.50;;;6.10;39.73
67109;BME280;54027;50.786;7.058;2023-02-28T14:49:04;102033.84;;;6.03;39.71
67109;BME280;54027;50.786;7.058;2023-02-28T14:51:30;102033.13;;;6.07;40.32
67109;BME280;54027;50.786;7.058;2023-02-28T14:53:58;102044.09;;;6.02;41.56
67109;BME280;54027;50.786;7.058;2023-02-28T14:56:32;102058.75;;;6.06;41.29
67109;BME280;54027;50.786;7.058;2023-02-28T14:58:59;102057.84;;;6.04;42.13
67109;BME280;54027;50.786;7.058;2023-02-28T15:01:25;102070.06;;;6.12;42.49
67109;BME280;54027;50.786;7.058;2023-02-28T15:04:01;102033.41;;;6.16;40.12
67109;BME280;54027;50.786;7.058;2023-02-28T15:06:28;102047.13;;;6.17;41.09
67109;BME280;54027;50.786;7.058;2023-02-28T15:09:29;102028.22;;;6.15;39.80
67109;BME280;54027;50.786;7.058;2023-02-28T15:11:54;102035.91;;;6.15;40.70
67109;BME280;54027;50.786;7.058;2023-02-28T15:14:21;102026.31;;;6.08;40.99
67109;BME280;54027;50.786;7.058;2023-02-28T15:16:52;102035.63;;;6.04;41.18
67109;BME280;54027;50.786;7.058;2023-02-28T15:21:49;102032.19;;;6.05;40.81
67109;BME280;54027;50.786;7.058;2023-02-28T15:24:38;102039.19;;;6.09;40.60
67109;BME280;54027;50.786;7.058;2023-02-28T15:27:11;102042.84;;;6.17;40.97
67109;BME280;54027;50.786;7.058;2023-02-28T15:29:46;102042.00;;;6.17;41.06
67109;BME280;54027;50.786;7.058;2023-02-28T15:32:33;102049.91;;;6.24;42.06
67109;BME280;54027;50.786;7.058;2023-02-28T15:35:18;102061.00;;;6.23;42.28
67109;BME280;54027;50.786;7.058;2023-02-28T15:37:58;102036.06;;;6.19;40.89
67109;BME280;54027;50.786;7.058;2023-02-28T15:45:33;102051.06;;;6.34;42.19